Nearby METAR Reports

YMLT - Launceston Airpo, Australia
Distance from station: N 179km
Updated: 19/01/2021 15:00
Clear
Clear
 Wind from S
Wind: S 19 km/h
Temperature: 18°C
Dew Point: 1°C
Humidity: 32%
Barometer: 1020 hPa
Clouds: Clear
Visibility: 10 km
2021/01/19 04:00 YMLT 190400Z AUTO 18010KT 170V240 9999 // NCD 18/01 Q1020
YMHB - Hobart/Tasmania, Australia
Distance from station: NE 55km
Updated: 19/01/2021 15:00
Mostly cloudy
Mostly cloudy
 Wind from SW
Wind: SW 26 km/h
Temperature: 16°C
Dew Point: -1°C
Humidity: 31%
Barometer: 1021 hPa
Clouds: Mostly cloudy
Visibility: 10 km
Cloud details: Few Clouds 1372 m
Mostly cloudy 9144 m
2021/01/19 04:00 YMHB 190400Z 23014KT 9999 FEW045 BKN300 16/M01 Q1021
 
YMAV - Avalon Airport, Australia
Distance from station: NNW 601km
Updated: 19/01/2021 15:00
Partly cloudy
Partly cloudy
 Wind from S
Wind: S 28 km/h
Temperature: 18°C
Dew Point: 7°C
Humidity: 49%
Barometer: 1024 hPa
Clouds: Partly cloudy
Visibility: 10 km
Cloud details: Partly cloudy 1280 m
2021/01/19 04:00 YMAV 190400Z AUTO 19015KT 9999 // SCT042 18/07 Q1024
YMML - Melbourne Intl A, Australia
Distance from station: NNW 631km
Updated: 19/01/2021 15:00
Few Clouds
Few Clouds
 Wind from S
Wind: S 30 km/h
Temperature: 18°C
Dew Point: 5°C
Humidity: 43%
Barometer: 1023 hPa
Clouds: Few Clouds
Visibility: 10 km
Cloud details: Few Clouds 1250 m
2021/01/19 04:00 YMML 190400Z 18016KT 9999 FEW041 18/05 Q1023